createdAt,value
2023-02-19T00:01:22.304Z,79.86
2023-02-19T00:06:29.099Z,80.11
2023-02-19T00:11:33.850Z,79.96
2023-02-19T00:16:39.881Z,79.94
2023-02-19T00:21:44.680Z,79.73
2023-02-19T00:26:49.148Z,79.98
2023-02-19T00:31:52.545Z,80.15
2023-02-19T00:36:57.392Z,80.08
2023-02-19T00:42:01.160Z,79.86
2023-02-19T00:47:04.322Z,80.16
2023-02-19T00:52:08.951Z,79.99
2023-02-19T00:57:12.197Z,80.10
2023-02-19T01:02:15.366Z,80.02
2023-02-19T01:07:20.586Z,80.01
2023-02-19T01:12:25.834Z,80.43
2023-02-19T01:17:29.275Z,80.54
2023-02-19T01:22:33.978Z,80.38
2023-02-19T01:27:37.281Z,80.32
2023-02-19T01:32:40.631Z,80.29
2023-02-19T01:37:45.292Z,80.18
2023-02-19T01:42:50.293Z,80.54
2023-02-19T01:48:10.283Z,80.69
2023-02-19T01:53:18.702Z,80.80
2023-02-19T01:58:22.090Z,81.10
2023-02-19T02:03:26.265Z,80.67
2023-02-19T02:08:50.463Z,81.71
2023-02-19T02:13:56.261Z,81.92
2023-02-19T02:19:07.219Z,82.31
2023-02-19T02:24:29.985Z,81.98
2023-02-19T02:30:07.315Z,81.81
2023-02-19T02:35:19.351Z,81.78
2023-02-19T02:40:22.971Z,81.25
2023-02-19T02:45:38.157Z,81.46
2023-02-19T02:50:45.629Z,81.40
2023-02-19T02:55:53.322Z,81.55
2023-02-19T03:01:18.126Z,81.35
2023-02-19T03:06:25.457Z,83.31
2023-02-19T03:11:49.667Z,83.21
2023-02-19T03:17:18.466Z,83.69
2023-02-19T03:22:26.737Z,83.32
2023-02-19T03:27:33.537Z,83.58
2023-02-19T03:32:41.547Z,83.27
2023-02-19T03:37:48.374Z,83.33
2023-02-19T03:42:57.957Z,83.42
2023-02-19T03:48:14.985Z,83.43
2023-02-19T03:53:28.937Z,83.57
2023-02-19T03:58:36.313Z,83.42
2023-02-19T04:03:44.291Z,83.58
2023-02-19T04:08:52.026Z,83.81
2023-02-19T04:13:59.892Z,83.99
2023-02-19T04:19:09.111Z,83.85
2023-02-19T04:24:15.697Z,83.88
2023-02-19T04:29:18.952Z,83.69
2023-02-19T04:34:23.585Z,84.29
2023-02-19T04:39:26.998Z,84.78
2023-02-19T04:44:30.272Z,84.52
2023-02-19T04:49:35.275Z,84.65
2023-02-19T04:54:38.731Z,84.76
2023-02-19T04:59:42.071Z,84.10
2023-02-19T05:04:46.687Z,84.59
2023-02-19T05:09:49.943Z,84.01
2023-02-19T05:14:53.365Z,84.59
2023-02-19T05:19:57.960Z,84.24
2023-02-19T05:25:01.168Z,84.05
2023-02-19T05:30:04.635Z,83.72
2023-02-19T05:35:09.934Z,83.28
2023-02-19T05:40:13.410Z,82.87
2023-02-19T05:45:16.741Z,82.51
2023-02-19T05:50:21.339Z,82.46
2023-02-19T05:55:24.438Z,82.52
2023-02-19T06:00:27.979Z,82.03
2023-02-19T06:05:32.697Z,81.21
2023-02-19T06:10:37.387Z,81.77
2023-02-19T06:15:41.165Z,81.44
2023-02-19T06:20:46.019Z,81.16
2023-02-19T06:25:49.389Z,80.95
2023-02-19T06:30:52.834Z,80.68
2023-02-19T06:36:00.400Z,80.45
2023-02-19T06:41:04.512Z,79.92
2023-02-19T06:46:09.424Z,79.27
2023-02-19T06:51:15.922Z,79.83
2023-02-19T06:56:25.846Z,79.55
2023-02-19T07:01:30.686Z,78.07
2023-02-19T07:06:36.146Z,77.56
2023-02-19T07:11:41.042Z,77.80
2023-02-19T07:16:44.786Z,77.03
2023-02-19T07:21:49.529Z,77.30
2023-02-19T07:26:52.844Z,80.43
2023-02-19T07:31:56.201Z,80.00
2023-02-19T07:37:00.783Z,79.81
2023-02-19T07:42:04.153Z,78.52
2023-02-19T07:47:07.360Z,78.60
2023-02-19T07:52:12.010Z,79.41
2023-02-19T07:57:15.167Z,78.84
2023-02-19T08:06:33.309Z,77.99
2023-02-19T08:11:54.590Z,78.56
2023-02-19T08:16:58.135Z,78.87
2023-02-19T08:22:02.832Z,78.92
2023-02-19T08:27:06.040Z,78.52
2023-02-19T08:32:09.429Z,77.87
2023-02-19T08:37:14.490Z,78.22
2023-02-19T08:42:17.912Z,78.37
2023-02-19T08:47:21.178Z,78.27
2023-02-19T08:52:25.985Z,77.61
2023-02-19T08:57:29.705Z,76.42
2023-02-19T09:02:32.935Z,77.23
2023-02-19T09:07:37.573Z,75.53
2023-02-19T09:12:41.511Z,75.69
2023-02-19T09:17:45.026Z,75.30
2023-02-19T09:22:49.743Z,75.39
2023-02-19T09:27:56.309Z,74.13
2023-02-19T09:32:59.512Z,74.96
2023-02-19T09:38:04.167Z,74.64
2023-02-19T09:43:09.103Z,73.21
2023-02-19T09:48:13.982Z,72.58
2023-02-19T09:53:23.045Z,72.81
2023-02-19T09:58:30.267Z,71.99
2023-02-19T10:03:39.315Z,72.62
2023-02-19T10:08:46.870Z,72.80
2023-02-19T10:13:54.553Z,73.10
2023-02-19T10:18:58.306Z,73.00
2023-02-19T10:24:05.846Z,73.95
2023-02-19T10:29:10.880Z,75.03
2023-02-19T10:34:22.291Z,72.97
2023-02-19T10:39:42.359Z,71.95
2023-02-19T10:44:47.740Z,70.62
2023-02-19T10:49:52.534Z,66.81
2023-02-19T10:55:14.817Z,67.91
2023-02-19T11:00:24.377Z,66.04
2023-02-19T11:05:27.845Z,65.42
2023-02-19T11:10:38.685Z,64.12
2023-02-19T11:15:42.692Z,64.08
2023-02-19T11:20:51.243Z,64.25
2023-02-19T11:25:57.795Z,66.54
2023-02-19T11:31:32.443Z,65.30
2023-02-19T11:36:37.263Z,65.11
2023-02-19T11:42:16.561Z,62.66
2023-02-19T11:47:49.590Z,60.83
2023-02-19T11:53:05.661Z,62.58
2023-02-19T11:58:34.364Z,60.59
2023-02-19T12:03:57.053Z,61.08
2023-02-19T12:09:34.690Z,60.75
2023-02-19T12:14:58.275Z,61.91
2023-02-19T12:20:06.790Z,63.65
2023-02-19T12:25:42.043Z,64.90
2023-02-19T12:31:04.082Z,65.93
2023-02-19T12:36:18.968Z,65.82
2023-02-19T12:41:33.937Z,65.91
2023-02-19T12:46:41.069Z,65.37
2023-02-19T12:51:49.004Z,65.88
2023-02-19T12:56:59.289Z,65.63
2023-02-19T13:02:15.066Z,66.36
2023-02-19T13:07:22.488Z,67.55
2023-02-19T13:12:30.405Z,67.68
2023-02-19T13:17:41.471Z,68.48
2023-02-19T13:23:05.447Z,69.28
2023-02-19T13:28:27.136Z,70.18
2023-02-19T13:33:45.196Z,70.96
2023-02-19T13:38:50.385Z,71.97
2023-02-19T13:44:01.853Z,72.83
2023-02-19T13:49:41.228Z,73.14
2023-02-19T13:54:44.505Z,73.99
2023-02-19T13:59:48.444Z,74.24
2023-02-19T14:04:56.102Z,74.51
2023-02-19T14:10:01.886Z,74.46
2023-02-19T14:15:51.388Z,75.13
2023-02-19T14:21:09.083Z,75.02
2023-02-19T14:26:13.002Z,75.33
2023-02-19T14:31:31.417Z,75.20
2023-02-19T14:36:49.002Z,76.04
2023-02-19T14:41:54.331Z,77.39
2023-02-19T14:47:01.977Z,77.58
2023-02-19T14:52:12.171Z,77.29
2023-02-19T14:57:20.041Z,77.23
2023-02-19T15:02:26.061Z,77.44
2023-02-19T15:07:34.721Z,77.54
2023-02-19T15:12:47.244Z,76.88
2023-02-19T15:17:52.542Z,77.44
2023-02-19T15:22:59.747Z,77.66
2023-02-19T15:28:21.421Z,77.97
2023-02-19T15:33:24.911Z,78.15
2023-02-19T15:38:30.083Z,78.06
2023-02-19T15:43:41.873Z,78.51
2023-02-19T15:48:50.406Z,78.63
2023-02-19T15:54:03.360Z,78.47
2023-02-19T15:59:14.775Z,78.68
2023-02-19T16:04:19.841Z,78.74
2023-02-19T16:09:29.164Z,78.77
2023-02-19T16:14:34.043Z,78.81
2023-02-19T16:19:47.665Z,78.98
2023-02-19T16:24:56.357Z,79.46
2023-02-19T16:30:00.503Z,79.67
2023-02-19T16:35:03.802Z,79.66
2023-02-19T16:40:41.003Z,79.58
2023-02-19T16:45:47.434Z,79.97
2023-02-19T16:50:51.352Z,80.39
2023-02-19T16:55:54.762Z,80.31
2023-02-19T17:00:59.702Z,80.83
2023-02-19T17:06:03.124Z,81.48
2023-02-19T17:11:09.136Z,81.21
2023-02-19T17:16:19.978Z,81.11
2023-02-19T17:21:25.221Z,80.97
2023-02-19T17:26:31.283Z,81.10
2023-02-19T17:31:36.376Z,81.37
2023-02-19T17:36:40.602Z,81.32
2023-02-19T17:41:44.651Z,81.13
2023-02-19T17:46:49.734Z,81.60
2023-02-19T17:51:52.939Z,81.78
2023-02-19T17:56:56.566Z,81.83
2023-02-19T18:02:03.306Z,82.18
2023-02-19T18:07:06.477Z,82.38
2023-02-19T18:12:10.477Z,82.29
2023-02-19T18:17:16.382Z,82.25
2023-02-19T18:22:19.805Z,82.30
2023-02-19T18:27:23.715Z,82.39
2023-02-19T18:32:29.061Z,82.17
2023-02-19T18:37:34.012Z,82.15
2023-02-19T18:42:37.557Z,82.75
2023-02-19T18:47:42.533Z,83.17
2023-02-19T18:52:47.178Z,82.74
2023-02-19T18:57:50.753Z,82.63
2023-02-19T19:02:59.616Z,83.15
2023-02-19T19:08:02.878Z,82.87
2023-02-19T19:13:06.728Z,83.06
2023-02-19T19:18:11.638Z,82.75
2023-02-19T19:23:15.220Z,82.83
2023-02-19T19:28:18.632Z,83.06
2023-02-19T19:33:23.405Z,82.71
2023-02-19T19:38:26.909Z,83.06
2023-02-19T19:43:31.264Z,82.87
2023-02-19T19:48:36.222Z,82.61
2023-02-19T19:53:39.563Z,82.76
2023-02-19T19:58:43.034Z,82.56
2023-02-19T20:03:47.718Z,82.63
2023-02-19T20:08:50.959Z,82.65
2023-02-19T20:13:54.200Z,82.61
2023-02-19T20:18:59.044Z,82.49
2023-02-19T20:24:03.166Z,83.43
2023-02-19T20:29:07.239Z,82.33
2023-02-19T20:34:11.944Z,82.64
2023-02-19T20:39:16.424Z,82.92
2023-02-19T20:44:20.763Z,82.62
2023-02-19T20:49:27.500Z,82.43
2023-02-19T20:54:33.237Z,82.69
2023-02-19T20:59:38.687Z,82.95
2023-02-19T21:04:44.071Z,82.72
2023-02-19T21:09:47.452Z,82.81
2023-02-19T21:14:50.875Z,82.50
2023-02-19T21:19:55.673Z,82.57
2023-02-19T21:24:59.110Z,82.65
2023-02-19T21:30:02.477Z,82.58
2023-02-19T21:35:09.120Z,82.69
2023-02-19T21:40:13.860Z,82.53
2023-02-19T21:45:17.590Z,82.91
2023-02-19T21:50:22.717Z,82.62
2023-02-19T21:55:25.944Z,82.41
2023-02-19T22:00:29.232Z,82.42
2023-02-19T22:05:34.140Z,82.50
2023-02-19T22:10:39.431Z,82.67
2023-02-19T22:15:42.804Z,82.61
2023-02-19T22:20:47.740Z,82.57
2023-02-19T22:25:51.400Z,82.28
2023-02-19T22:30:54.816Z,82.69
2023-02-19T22:35:59.609Z,81.92
2023-02-19T22:41:04.172Z,82.14
2023-02-19T22:46:11.752Z,82.72
2023-02-19T22:51:17.994Z,82.18
2023-02-19T22:56:23.095Z,82.62
2023-02-19T23:01:26.688Z,82.46
2023-02-19T23:06:33.468Z,82.25
2023-02-19T23:11:39.320Z,81.98
2023-02-19T23:16:42.798Z,81.85
2023-02-19T23:21:47.437Z,82.18
2023-02-19T23:26:52.880Z,82.19
2023-02-19T23:31:56.530Z,81.86
2023-02-19T23:37:02.448Z,81.74
2023-02-19T23:42:05.744Z,82.02
2023-02-19T23:47:08.938Z,82.18
2023-02-19T23:52:13.491Z,81.90
2023-02-19T23:57:16.949Z,81.74
